Time;durP1;ratioP1;P1;durP2;ratioP2;P2;SDS_P1;SDS_P2;PMS_P1;PMS_P2;Temp;Humidity;BMP_temperature;BMP_pressure;BME280_temperature;BME280_humidity;BME280_pressure;Samples;Min_cycle;Max_cycle;Signal;HPM_P1;HPM_P2
2022/03/09 00:00:07;;;;;;;52.35;24.45;;;;;;;-4.43;84.64;97111.06;5026569;28;20509;-71
2022/03/09 00:02:33;;;;;;;;;;;;;;;-4.47;85.82;97117.16;5015181;28;20033;-64
2022/03/09 00:04:58;;;;;;;50.97;22.42;;;;;;;-4.56;85.28;97126.75;5030666;28;19921;-66
2022/03/09 00:07:26;;;;;;;53.47;24.27;;;;;;;-4.64;85.86;97128.84;5022042;28;20078;-65
2022/03/09 00:09:51;;;;;;;60.25;23.70;;;;;;;-4.55;86.93;97128.38;5015787;28;20038;-66
2022/03/09 00:12:17;;;;;;;57.88;24.15;;;;;;;-4.86;88.24;97130.81;5011793;28;20450;-66
2022/03/09 00:14:42;;;;;;;61.25;26.05;;;;;;;-5.16;91.49;97144.78;5012227;28;20053;-66
2022/03/09 00:17:08;;;;;;;62.65;26.20;;;;;;;-5.33;92.23;97145.69;5005421;28;20033;-65
2022/03/09 00:19:34;;;;;;;57.47;23.70;;;;;;;-5.41;92.42;97144.28;5003411;28;20154;-65
2022/03/09 00:21:59;;;;;;;58.00;24.70;;;;;;;-5.42;93.60;97157.88;5031972;28;20048;-63
2022/03/09 00:24:25;;;;;;;59.58;23.40;;;;;;;-5.53;93.53;97150.81;5007397;28;20052;-66
2022/03/09 00:26:50;;;;;;;59.88;25.10;;;;;;;-5.67;95.61;97155.75;5013892;28;20053;-66
2022/03/09 00:29:16;;;;;;;63.72;25.27;;;;;;;-5.72;96.86;97153.06;5022541;28;20045;-66
2022/03/09 00:31:41;;;;;;;54.67;23.75;;;;;;;-5.72;96.69;97156.53;4979028;28;20069;-66
2022/03/09 00:34:07;;;;;;;56.60;23.48;;;;;;;-5.60;95.94;97157.19;4987682;28;20096;-67
2022/03/09 00:36:32;;;;;;;57.20;23.23;;;;;;;-5.56;96.04;97154.81;4993299;28;20046;-66
2022/03/09 00:38:58;;;;;;;53.42;23.30;;;;;;;-5.49;96.08;97151.94;5010297;28;20503;-64
2022/03/09 00:41:23;;;;;;;51.17;22.42;;;;;;;-5.39;95.79;97163.50;5000241;28;20409;-65
2022/03/09 00:43:48;;;;;;;51.42;21.83;;;;;;;-5.37;95.19;97165.94;5020441;28;20041;-66
2022/03/09 00:46:14;;;;;;;48.55;22.55;;;;;;;-5.44;95.45;97166.16;5009293;28;20041;-66
2022/03/09 00:48:39;;;;;;;49.05;21.65;;;;;;;-5.48;95.68;97162.34;5004046;28;20052;-67
2022/03/09 00:51:06;;;;;;;49.25;20.65;;;;;;;-5.44;95.76;97163.50;5017927;28;20409;-66
2022/03/09 00:53:31;;;;;;;50.17;21.17;;;;;;;-5.20;95.87;97155.97;5004513;28;20041;-68
2022/03/09 00:55:57;;;;;;;48.08;20.77;;;;;;;-4.96;94.35;97152.16;5022108;28;20042;-65
2022/03/09 00:58:22;;;;;;;46.58;19.02;;;;;;;-4.83;92.79;97159.72;5014478;28;20122;-68
2022/03/09 01:00:48;;;;;;;47.78;20.20;;;;;;;-4.95;90.88;97161.75;5014328;28;20084;-66
2022/03/09 01:03:14;;;;;;;50.42;20.83;;;;;;;-5.03;90.25;97160.38;5013324;28;20069;-67
2022/03/09 01:05:41;;;;;;;46.22;20.42;;;;;;;-5.24;90.23;97167.38;5015933;28;20136;-66
2022/03/09 01:08:06;;;;;;;42.13;19.13;;;;;;;-5.34;90.44;97165.44;4999653;28;20390;-65
2022/03/09 01:10:32;;;;;;;45.60;20.23;;;;;;;-5.25;92.10;97169.25;5021351;28;20056;-69
2022/03/09 01:12:57;;;;;;;44.70;20.23;;;;;;;-5.12;92.84;97153.88;5014914;28;20578;-65
2022/03/09 01:15:23;;;;;;;50.55;21.73;;;;;;;-4.93;92.73;97157.78;5016424;28;20045;-66
2022/03/09 01:17:48;;;;;;;45.67;19.10;;;;;;;-4.90;91.89;97154.56;5022276;28;20049;-66
2022/03/09 01:20:14;;;;;;;43.95;20.38;;;;;;;-4.81;91.31;97155.75;5016494;28;20065;-67
2022/03/09 01:22:40;;;;;;;40.15;19.45;;;;;;;-4.89;90.38;97156.19;5020008;28;20053;-65
2022/03/09 01:25:06;;;;;;;47.50;19.92;;;;;;;-5.07;90.31;97154.72;5014151;28;20041;-67
2022/03/09 01:27:32;;;;;;;45.28;20.02;;;;;;;-5.38;92.55;97149.13;5028596;28;20084;-67
2022/03/09 01:29:57;;;;;;;48.63;21.40;;;;;;;-5.67;94.99;97161.91;5021752;28;20069;-67
2022/03/09 01:32:23;;;;;;;44.33;19.95;;;;;;;-5.70;95.74;97166.94;5016737;28;20080;-66
2022/03/09 01:34:49;;;;;;;44.35;19.88;;;;;;;-5.70;95.98;97161.59;5021735;28;20123;-67
2022/03/09 01:37:15;;;;;;;44.65;18.73;;;;;;;-5.69;95.60;97155.19;5014517;28;20073;-69
2022/03/09 01:39:40;;;;;;;45.53;20.58;;;;;;;-5.62;96.14;97148.63;5021659;28;20081;-65
2022/03/09 01:42:06;;;;;;;47.83;21.10;;;;;;;-5.68;94.64;97154.94;5014379;28;20065;-66
2022/03/09 01:44:31;;;;;;;41.75;19.48;;;;;;;-5.62;94.94;97153.97;5021317;28;20045;-68
2022/03/09 01:46:57;;;;;;;41.70;18.67;;;;;;;-5.31;95.01;97154.25;5000924;28;20050;-65
2022/03/09 01:49:23;;;;;;;38.15;18.67;;;;;;;-5.12;93.98;97153.88;4990297;28;20537;-64
2022/03/09 01:51:51;;;;;;;43.92;18.90;;;;;;;-4.98;93.19;97156.94;5008201;28;20076;-63
2022/03/09 01:54:16;;;;;;;39.90;18.98;;;;;;;-4.89;92.52;97163.41;4995631;28;20042;-65
2022/03/09 01:56:43;;;;;;;44.55;19.90;;;;;;;-4.86;91.91;97165.56;4995857;28;20046;-67
2022/03/09 01:59:11;;;;;;;40.78;17.17;;;;;;;-4.89;91.47;97150.84;5007054;28;20139;-67
2022/03/09 02:01:38;;;;;;;41.35;17.60;;;;;;;-4.91;91.88;97161.00;5020992;28;20038;-67
2022/03/09 02:04:05;;;;;;;42.90;17.35;;;;;;;-4.94;91.71;97160.69;5010055;28;20041;-70
2022/03/09 02:06:35;;;;;;;44.50;18.10;;;;;;;-5.14;90.60;97172.81;5000682;28;20054;-65
2022/03/09 02:11:47;;;;;;;41.45;17.85;;;;;;;-5.21;91.75;97172.22;5009056;28;20127;-66
2022/03/09 02:14:30;;;;;;;38.28;16.95;;;;;;;-5.25;90.97;97171.13;5003347;28;20061;-66
2022/03/09 02:16:56;;;;;;;38.15;17.77;;;;;;;-5.47;90.07;97172.00;5000480;28;20041;-66
2022/03/09 02:19:22;;;;;;;35.50;16.30;;;;;;;-5.44;91.76;97170.66;4996076;28;21512;-65
2022/03/09 02:21:50;;;;;;;39.15;17.80;;;;;;;-5.18;91.84;97169.84;5001539;28;20085;-65
2022/03/09 02:24:16;;;;;;;38.35;18.75;;;;;;;-5.25;91.31;97166.59;4996204;28;20045;-66
2022/03/09 02:26:42;;;;;;;38.63;18.25;;;;;;;-5.32;91.02;97170.53;5000975;28;20050;-66
2022/03/09 02:29:07;;;;;;;41.22;17.83;;;;;;;-5.41;91.39;97170.97;4996063;28;20045;-62
2022/03/09 02:31:34;;;;;;;40.00;17.60;;;;;;;-5.35;92.07;97163.81;5000743;28;20446;-66
2022/03/09 02:33:59;;;;;;;43.45;18.33;;;;;;;-5.23;92.37;97169.81;5001355;28;20041;-67
2022/03/09 02:36:24;;;;;;;39.10;17.42;;;;;;;-5.18;92.12;97164.50;4978090;28;20081;-65
2022/03/09 02:38:50;;;;;;;38.70;17.15;;;;;;;-5.14;91.52;97174.69;5001101;28;20034;-66
2022/03/09 02:41:16;;;;;;;35.63;16.63;;;;;;;-5.20;91.64;97181.88;5007758;28;20045;-66
2022/03/09 02:43:41;;;;;;;39.83;17.38;;;;;;;-5.30;91.07;97184.44;5019803;28;20041;-68
2022/03/09 02:46:06;;;;;;;42.45;17.20;;;;;;;-5.26;90.65;97183.69;5014741;28;20132;-66
2022/03/09 02:48:32;;;;;;;39.00;16.70;;;;;;;-5.40;90.84;97182.47;5020937;28;20052;-65
2022/03/09 02:50:57;;;;;;;33.78;16.85;;;;;;;-5.65;89.55;97183.03;5020299;28;20689;-66
2022/03/09 02:53:23;;;;;;;35.40;15.88;;;;;;;-5.89;90.46;97185.13;5018724;28;20621;-67
2022/03/09 02:55:48;;;;;;;43.03;18.23;;;;;;;-5.77;93.61;97178.59;5024481;28;20069;-67
2022/03/09 02:58:13;;;;;;;41.08;18.27;;;;;;;-5.58;93.94;97180.97;4997746;28;20075;-66
2022/03/09 03:00:39;;;;;;;38.28;17.70;;;;;;;-5.70;92.94;97178.41;5027046;28;20095;-64
2022/03/09 03:03:04;;;;;;;39.53;17.77;;;;;;;-5.60;93.14;97180.38;5012431;28;20037;-67
2022/03/09 03:05:29;;;;;;;38.22;17.55;;;;;;;-5.69;93.01;97172.03;5015529;28;20054;-65
2022/03/09 03:07:55;;;;;;;38.72;18.17;;;;;;;-5.87;92.86;97183.00;5030831;28;20041;-66
2022/03/09 03:10:20;;;;;;;41.65;18.75;;;;;;;-5.83;93.69;97176.94;4999176;28;20196;-66
2022/03/09 03:12:45;;;;;;;35.03;16.65;;;;;;;-5.83;94.14;97176.94;5004954;28;20049;-65
2022/03/09 03:15:11;;;;;;;36.90;16.90;;;;;;;-5.84;94.22;97175.31;5019404;28;20415;-66
2022/03/09 03:17:37;;;;;;;38.33;17.40;;;;;;;-6.03;93.10;97174.88;5016077;28;20044;-66
2022/03/09 03:20:05;;;;;;;38.78;17.63;;;;;;;-5.92;94.67;97186.44;5036756;28;20057;-70
2022/03/09 03:22:30;;;;;;;38.92;16.50;;;;;;;-5.81;95.14;97190.84;5014661;28;20041;-66
2022/03/09 03:24:56;;;;;;;38.22;16.90;;;;;;;-5.69;94.56;97190.72;5023503;28;20045;-65
2022/03/09 03:27:22;;;;;;;39.03;16.35;;;;;;;-5.72;94.73;97187.75;5019957;28;20820;-68
2022/03/09 03:29:48;;;;;;;40.67;16.75;;;;;;;-5.75;94.24;97194.38;5031457;28;20046;-64
2022/03/09 03:32:13;;;;;;;39.58;17.27;;;;;;;-5.76;94.55;97190.09;5009971;28;20038;-64
2022/03/09 03:34:39;;;;;;;36.15;16.48;;;;;;;-5.64;94.68;97197.97;5023490;28;20048;-61
2022/03/09 03:37:05;;;;;;;33.40;16.52;;;;;;;-5.61;93.91;97192.13;5016895;28;20080;-69
2022/03/09 03:39:30;;;;;;;36.67;15.60;;;;;;;-5.66;93.20;97187.53;5014844;28;20132;-67
2022/03/09 03:41:56;;;;;;;35.45;16.60;;;;;;;-5.82;92.94;97194.53;5023544;28;20195;-64
2022/03/09 03:44:21;;;;;;;34.88;15.43;;;;;;;-5.84;93.96;97178.00;5009096;28;20157;-67
2022/03/09 03:46:47;;;;;;;31.13;15.02;;;;;;;-5.88;93.91;97186.75;5037477;28;20077;-68
2022/03/09 03:49:12;;;;;;;31.58;15.20;;;;;;;-5.90;94.38;97189.66;5026837;28;20045;-67
2022/03/09 03:51:38;;;;;;;35.63;14.50;;;;;;;-5.93;94.22;97195.50;5024094;28;20037;-68
2022/03/09 03:54:03;;;;;;;34.13;14.85;;;;;;;-5.83;94.78;97200.97;5020148;28;20068;-70
2022/03/09 03:56:29;;;;;;;28.50;13.88;;;;;;;-5.78;94.06;97200.19;5019593;28;20038;-65
2022/03/09 03:58:54;;;;;;;31.98;15.35;;;;;;;-6.10;92.24;97208.09;4990755;28;20056;-64
2022/03/09 04:01:19;;;;;;;35.70;15.50;;;;;;;-6.48;94.04;97201.72;5000686;28;20132;-65
2022/03/09 04:03:45;;;;;;;31.80;15.48;;;;;;;-6.73;95.95;97210.97;5003708;28;20034;-69
2022/03/09 04:06:10;;;;;;;37.53;16.30;;;;;;;-6.88;98.47;97198.19;4981117;28;20045;-66
2022/03/09 04:08:36;;;;;;;37.63;15.93;;;;;;;-7.01;99.02;97201.19;5014646;28;20044;-66
2022/03/09 04:11:02;;;;;;;38.10;16.67;;;;;;;-7.01;100.00;97204.66;5020557;28;20738;-70
2022/03/09 04:13:28;;;;;;;33.63;16.20;;;;;;;-7.07;100.00;97205.63;5012319;28;20125;-67
2022/03/09 04:15:53;;;;;;;40.45;16.23;;;;;;;-7.09;100.00;97210.38;5019776;28;20042;-68
2022/03/09 04:18:18;;;;;;;32.83;15.82;;;;;;;-7.12;100.00;97208.19;4999606;28;20045;-68
2022/03/09 04:20:44;;;;;;;34.80;16.73;;;;;;;-6.96;100.00;97214.59;5014253;28;20076;-68
2022/03/09 04:23:10;;;;;;;38.03;15.77;;;;;;;-7.06;100.00;97215.22;5017983;28;20081;-66
2022/03/09 04:25:38;;;;;;;36.92;16.33;;;;;;;-7.16;100.00;97223.84;5004386;28;20076;-67
2022/03/09 04:28:04;;;;;;;33.97;15.57;;;;;;;-7.08;100.00;97227.16;5017593;28;20045;-69
2022/03/09 04:30:30;;;;;;;35.75;15.93;;;;;;;-6.94;100.00;97223.94;4997549;28;20406;-64
2022/03/09 04:32:56;;;;;;;41.45;16.83;;;;;;;-6.83;100.00;97227.56;5022186;28;20041;-68
2022/03/09 04:35:21;;;;;;;36.75;16.85;;;;;;;-6.59;100.00;97238.06;5012503;28;20617;-69
2022/03/09 04:37:47;;;;;;;33.67;15.40;;;;;;;-6.36;100.00;97231.75;5019181;28;20091;-66
2022/03/09 04:40:12;;;;;;;39.83;15.95;;;;;;;-6.19;100.00;97234.41;5008315;28;20065;-65
2022/03/09 04:42:38;;;;;;;38.53;15.70;;;;;;;-6.14;100.00;97231.78;5022470;28;20123;-65
2022/03/09 04:45:05;;;;;;;33.40;15.27;;;;;;;-6.31;100.00;97234.50;5000232;28;20509;-71
2022/03/09 04:47:30;;;;;;;33.60;15.18;;;;;;;-6.50;99.33;97231.28;5021740;28;20512;-66
2022/03/09 04:49:56;;;;;;;38.17;15.48;;;;;;;-6.73;99.01;97233.06;5004620;28;20037;-67
2022/03/09 04:52:21;;;;;;;40.15;16.85;;;;;;;-6.92;100.00;97231.69;5016296;28;20288;-63
2022/03/09 04:54:47;;;;;;;34.13;16.42;;;;;;;-7.06;100.00;97233.84;5013315;28;20125;-67
2022/03/09 04:57:12;;;;;;;35.47;15.98;;;;;;;-7.14;100.00;97243.03;5015358;28;20140;-68
2022/03/09 04:59:38;;;;;;;37.97;16.10;;;;;;;-6.97;100.00;97240.41;5021766;28;20103;-67
2022/03/09 05:02:04;;;;;;;37.90;16.40;;;;;;;-6.76;100.00;97238.88;5018854;28;20498;-70
2022/03/09 05:04:29;;;;;;;39.38;17.10;;;;;;;-6.69;100.00;97240.59;5017826;28;20056;-66
2022/03/09 05:06:55;;;;;;;36.83;16.27;;;;;;;-6.51;100.00;97243.00;4993492;28;20384;-67
2022/03/09 05:09:21;;;;;;;36.05;16.52;;;;;;;-6.39;100.00;97240.22;5006448;28;20053;-65
2022/03/09 05:11:47;;;;;;;38.47;16.48;;;;;;;-6.37;100.00;97230.94;5014672;28;20489;-67
2022/03/09 05:14:34;;;;;;;33.85;15.88;;;;;;;-6.43;100.00;97231.91;5014997;28;20056;-68
2022/03/09 05:17:08;;;;;;;44.30;16.20;;;;;;;-6.65;98.92;97234.50;4998689;28;20049;-65
2022/03/09 05:19:33;;;;;;;33.53;14.98;;;;;;;-6.66;99.59;97235.59;5020997;28;20401;-66
2022/03/09 05:21:58;;;;;;;34.40;15.45;;;;;;;-6.77;99.00;97228.47;5013094;28;20050;-66
2022/03/09 05:24:24;;;;;;;38.63;15.15;;;;;;;-6.90;98.83;97234.13;5016646;28;20057;-66
2022/03/09 05:26:49;;;;;;;30.85;14.23;;;;;;;-7.04;98.86;97231.78;5021945;28;20041;-65
2022/03/09 05:29:15;;;;;;;32.50;14.95;;;;;;;-7.16;99.83;97245.13;5016235;28;20049;-67
2022/03/09 05:31:42;;;;;;;34.30;15.52;;;;;;;-7.24;100.00;97234.88;5021510;28;20111;-63
2022/03/09 05:34:07;;;;;;;34.08;14.07;;;;;;;-7.23;100.00;97235.69;5015531;28;20030;-66
2022/03/09 05:36:33;;;;;;;33.03;14.35;;;;;;;-7.25;100.00;97237.78;5013681;28;20072;-63
2022/03/09 05:38:58;;;;;;;36.15;15.40;;;;;;;-7.27;100.00;97238.03;5017656;28;20049;-65
2022/03/09 05:41:24;;;;;;;35.22;15.20;;;;;;;-7.05;100.00;97235.47;5014885;28;20041;-67
2022/03/09 05:43:50;;;;;;;30.67;13.80;;;;;;;-6.87;100.00;97238.97;5020937;28;20069;-65
2022/03/09 05:46:15;;;;;;;34.72;15.95;;;;;;;-6.80;100.00;97245.75;5015901;28;20042;-67
2022/03/09 05:48:41;;;;;;;29.52;15.20;;;;;;;-6.68;100.00;97243.03;5005862;28;20041;-66
2022/03/09 05:51:06;;;;;;;33.88;15.48;;;;;;;-6.50;100.00;97246.47;5006683;28;20076;-68
2022/03/09 05:53:32;;;;;;;36.70;16.85;;;;;;;-6.55;100.00;97247.22;4999014;28;20573;-67
2022/03/09 05:55:57;;;;;;;37.05;15.93;;;;;;;-6.59;100.00;97252.22;5001911;28;20135;-63
2022/03/09 05:58:23;;;;;;;35.72;15.80;;;;;;;-6.48;100.00;97247.84;4997039;28;20042;-67
2022/03/09 06:00:48;;;;;;;41.20;16.40;;;;;;;-6.38;100.00;97244.53;5010320;28;20487;-68
2022/03/09 06:03:14;;;;;;;36.25;16.60;;;;;;;-6.27;100.00;97243.59;5008968;28;20061;-68
2022/03/09 06:05:39;;;;;;;36.40;15.95;;;;;;;-6.16;100.00;97250.72;5017680;28;20084;-64
2022/03/09 06:08:04;;;;;;;33.75;16.60;;;;;;;-5.93;100.00;97254.19;5008689;28;20133;-69
2022/03/09 06:10:30;;;;;;;36.53;15.63;;;;;;;-5.76;100.00;97256.81;5020525;28;20048;-64
2022/03/09 06:12:55;;;;;;;33.35;15.68;;;;;;;-5.75;99.48;97255.72;5020352;28;20033;-66
2022/03/09 06:15:21;;;;;;;36.45;16.08;;;;;;;-5.77;97.90;97266.66;5009444;28;20050;-67
2022/03/09 06:17:48;;;;;;;34.20;15.13;;;;;;;-5.57;97.43;97276.78;5016114;28;20134;-65
2022/03/09 06:20:18;;;;;;;31.38;14.70;;;;;;;-5.39;95.72;97282.84;5016247;28;20095;-67
2022/03/09 06:22:45;;;;;;;39.55;17.00;;;;;;;-5.33;94.66;97283.72;5019387;28;20490;-63
2022/03/09 06:25:11;;;;;;;37.50;16.70;;;;;;;-5.36;94.64;97290.38;4995776;28;20049;-66
2022/03/09 06:27:50;;;;;;;41.55;18.05;;;;;;;-5.46;98.68;97285.72;5002047;28;20041;-62
2022/03/09 06:30:16;;;;;;;38.25;18.13;;;;;;;-4.49;96.47;97296.56;5012492;28;20099;-66
2022/03/09 06:32:43;;;;;;;36.55;15.95;;;;;;;-3.24;89.66;97291.69;5003649;28;20483;-66
2022/03/09 06:35:10;;;;;;;42.55;17.17;;;;;;;-2.03;81.23;97290.47;4990285;28;20510;-67
2022/03/09 06:37:36;;;;;;;30.70;15.93;;;;;;;-1.02;76.35;97290.41;5012275;28;20073;-66
2022/03/09 06:40:04;;;;;;;32.15;14.90;;;;;;;0.00;71.51;97291.59;5018102;28;20045;-68
2022/03/09 06:42:30;;;;;;;30.70;14.32;;;;;;;0.90;66.65;97287.34;5020317;28;20129;-66
2022/03/09 06:44:56;;;;;;;25.10;13.90;;;;;;;1.80;62.63;97292.00;5020837;28;20136;-65
2022/03/09 06:47:22;;;;;;;25.25;13.38;;;;;;;2.40;57.40;97291.25;5024985;28;20045;-66
2022/03/09 06:49:48;;;;;;;25.08;13.00;;;;;;;2.90;54.97;97294.06;5017296;28;20052;-67
2022/03/09 06:52:13;;;;;;;26.75;13.70;;;;;;;2.38;55.92;97298.88;5006316;28;20545;-66
2022/03/09 06:54:39;;;;;;;24.70;13.40;;;;;;;3.22;54.49;97312.06;5034336;28;20045;-68
2022/03/09 06:57:05;;;;;;;29.05;16.42;;;;;;;3.22;53.46;97305.84;5029902;28;20045;-69
2022/03/09 06:59:30;;;;;;;27.00;14.85;;;;;;;3.49;54.58;97309.59;5021576;28;20064;-67
2022/03/09 07:01:56;;;;;;;26.52;14.57;;;;;;;3.40;53.89;97320.34;5020515;28;20099;-66
2022/03/09 07:04:22;;;;;;;29.70;14.75;;;;;;;2.77;54.01;97309.19;5012812;28;20256;-64
2022/03/09 07:06:47;;;;;;;35.67;14.10;;;;;;;3.02;53.63;97309.78;5013044;28;20046;-66
2022/03/09 07:09:14;;;;;;;22.65;12.70;;;;;;;3.18;54.19;97312.97;5013385;28;20041;-68
2022/03/09 07:11:41;;;;;;;26.58;15.43;;;;;;;3.05;54.57;97318.09;5019780;28;20037;-67
2022/03/09 07:14:07;;;;;;;31.40;13.25;;;;;;;3.25;53.24;97316.84;5015189;28;20120;-67
2022/03/09 07:16:41;;;;;;;24.67;12.75;;;;;;;4.39;53.30;97320.41;5020013;28;20119;-66
2022/03/09 07:19:07;;;;;;;29.17;14.50;;;;;;;4.68;53.09;97324.56;4992576;28;20099;-67
2022/03/09 07:21:32;;;;;;;33.28;13.85;;;;;;;4.78;50.96;97325.06;5047868;28;20083;-66
2022/03/09 07:23:58;;;;;;;30.48;17.77;;;;;;;6.43;47.06;97312.75;5052818;28;20041;-67
2022/03/09 07:26:23;;;;;;;29.85;15.80;;;;;;;5.79;47.29;97315.38;5034201;28;20055;-67
2022/03/09 07:28:49;;;;;;;26.20;13.77;;;;;;;6.03;45.67;97325.78;5034925;28;20038;-66
2022/03/09 07:31:14;;;;;;;53.08;33.22;;;;;;;5.12;48.46;97333.66;5001691;28;20129;-67
2022/03/09 07:33:39;;;;;;;33.90;22.38;;;;;;;4.83;49.86;97332.28;5018537;28;20037;-66
2022/03/09 07:36:05;;;;;;;27.67;15.10;;;;;;;2.14;57.73;97334.94;5005533;28;20136;-62
2022/03/09 07:38:32;;;;;;;34.13;17.30;;;;;;;3.04;55.50;97337.34;5006223;28;20065;-67
2022/03/09 07:40:58;;;;;;;31.98;18.75;;;;;;;3.58;55.50;97332.13;5025942;28;20045;-66
2022/03/09 07:43:23;;;;;;;30.17;15.88;;;;;;;3.62;54.52;97333.94;5016880;28;20072;-67
2022/03/09 07:45:49;;;;;;;26.90;14.95;;;;;;;4.70;51.42;97341.31;5021718;28;20046;-67
2022/03/09 07:48:14;;;;;;;37.60;17.58;;;;;;;4.62;51.46;97332.03;5007498;28;20041;-68
2022/03/09 07:50:40;;;;;;;33.53;15.98;;;;;;;4.07;53.74;97343.19;5003661;28;20091;-65
2022/03/09 07:53:07;;;;;;;30.98;15.43;;;;;;;3.18;58.48;97338.13;5015425;28;20136;-65
2022/03/09 07:55:33;;;;;;;33.50;18.75;;;;;;;2.48;60.91;97337.34;5015459;28;20056;-68
2022/03/09 07:57:58;;;;;;;32.63;14.93;;;;;;;3.77;59.26;97340.13;5022204;28;20037;-67
2022/03/09 08:00:24;;;;;;;32.90;16.48;;;;;;;4.65;54.13;97338.75;5008339;28;20321;-66
2022/03/09 08:02:49;;;;;;;33.08;16.33;;;;;;;4.24;55.84;97339.81;5021578;28;20045;-68
2022/03/09 08:05:15;;;;;;;34.30;17.08;;;;;;;4.08;54.94;97337.47;5014101;28;20472;-67
2022/03/09 08:07:42;;;;;;;30.38;15.75;;;;;;;5.69;51.52;97338.22;5013553;28;20052;-68
2022/03/09 08:10:09;;;;;;;33.42;15.77;;;;;;;3.59;57.61;97342.66;5016042;28;20161;-68
2022/03/09 08:12:35;;;;;;;31.83;15.90;;;;;;;5.45;53.23;97344.13;5013066;28;20048;-67
2022/03/09 08:15:01;;;;;;;30.67;14.70;;;;;;;4.68;53.44;97341.66;5021936;28;20045;-67
2022/03/09 08:17:26;;;;;;;33.30;16.85;;;;;;;4.87;52.75;97340.59;5017296;28;20049;-68
2022/03/09 08:19:52;;;;;;;32.60;16.60;;;;;;;4.58;53.37;97340.00;5024130;28;20105;-67
2022/03/09 08:22:17;;;;;;;33.75;16.98;;;;;;;5.00;53.11;97347.84;5015996;28;20041;-69
2022/03/09 08:24:43;;;;;;;28.60;15.05;;;;;;;5.41;52.80;97343.16;5013441;28;20054;-67
2022/03/09 08:27:08;;;;;;;34.42;19.83;;;;;;;6.99;49.35;97329.03;5014521;28;20108;-67
2022/03/09 08:29:34;;;;;;;32.78;16.02;;;;;;;8.07;43.92;97335.03;5020704;28;20048;-69
2022/03/09 08:31:59;;;;;;;27.27;15.70;;;;;;;8.00;45.48;97333.66;5003195;28;20037;-68
2022/03/09 08:34:24;;;;;;;31.23;15.18;;;;;;;9.90;40.67;97324.63;5017398;28;20122;-68
2022/03/09 08:36:50;;;;;;;31.58;15.70;;;;;;;6.88;46.16;97327.81;5020102;28;20052;-69
2022/03/09 08:39:15;;;;;;;29.48;14.77;;;;;;;5.44;50.92;97329.75;5015750;28;20454;-67
2022/03/09 08:41:41;;;;;;;31.27;15.93;;;;;;;6.07;51.14;97332.97;5024902;28;20046;-68
2022/03/09 08:44:06;;;;;;;33.10;17.37;;;;;;;7.17;49.74;97335.22;4970491;28;1059739;-68
2022/03/09 08:46:32;;;;;;;29.83;16.17;;;;;;;7.71;47.07;97339.22;5013911;28;20479;-67
2022/03/09 08:48:57;;;;;;;36.90;16.58;;;;;;;9.77;42.38;97332.84;5022100;28;20133;-68
2022/03/09 08:51:23;;;;;;;31.13;14.90;;;;;;;11.01;38.94;97326.81;5016284;28;20056;-67
2022/03/09 08:53:49;;;;;;;28.02;16.48;;;;;;;11.47;37.43;97321.66;5016496;28;20374;-68
2022/03/09 08:56:14;;;;;;;29.88;16.58;;;;;;;11.58;37.14;97330.91;5016471;28;20053;-69
2022/03/09 08:58:40;;;;;;;25.95;15.48;;;;;;;11.53;36.42;97325.69;5013857;28;20045;-68
2022/03/09 09:01:07;;;;;;;27.75;15.52;;;;;;;12.41;36.15;97321.66;5016852;28;20132;-68
2022/03/09 09:03:32;;;;;;;29.38;15.07;;;;;;;12.19;35.78;97320.44;5022183;28;20440;-67
2022/03/09 09:05:57;;;;;;;28.15;15.57;;;;;;;12.39;35.39;97322.03;5021121;28;20041;-66
2022/03/09 09:08:23;;;;;;;24.98;14.70;;;;;;;12.75;35.14;97321.91;5005143;28;20111;-68
2022/03/09 09:10:49;;;;;;;25.90;15.13;;;;;;;11.34;36.56;97325.63;5014724;28;20041;-69
2022/03/09 09:13:14;;;;;;;27.75;16.30;;;;;;;12.12;35.61;97323.84;4999032;28;20041;-69
2022/03/09 09:15:40;;;;;;;30.13;16.75;;;;;;;11.64;36.13;97320.44;5003439;28;20046;-67
2022/03/09 09:18:06;;;;;;;35.17;16.45;;;;;;;12.84;34.90;97319.69;4979838;28;20056;-68
2022/03/09 09:20:33;;;;;;;35.22;17.02;;;;;;;12.66;33.62;97319.38;5012605;28;20546;-67
2022/03/09 09:22:59;;;;;;;31.88;18.25;;;;;;;11.47;34.97;97316.97;5013379;28;20157;-66
2022/03/09 09:25:26;;;;;;;30.58;16.73;;;;;;;11.50;36.33;97301.72;5015292;28;20045;-70
2022/03/09 09:27:56;;;;;;;27.65;17.25;;;;;;;12.34;34.49;97299.56;5021220;28;20447;-67
2022/03/09 09:30:22;;;;;;;32.97;19.00;;;;;;;11.59;35.69;97304.25;4997313;28;20106;-70
2022/03/09 09:32:49;;;;;;;31.75;18.02;;;;;;;12.39;35.05;97302.78;5006650;28;20130;-69
2022/03/09 09:35:16;;;;;;;43.85;17.35;;;;;;;13.47;34.42;97306.56;5012852;28;20072;-67
2022/03/09 09:37:43;;;;;;;29.92;16.55;;;;;;;12.85;33.82;97307.53;5014575;28;20368;-67
2022/03/09 09:40:09;;;;;;;34.50;18.40;;;;;;;12.23;33.97;97299.34;4995941;28;20091;-68
2022/03/09 09:42:36;;;;;;;34.10;17.25;;;;;;;13.78;33.54;97299.94;5003302;28;20128;-68
2022/03/09 09:45:03;;;;;;;31.55;17.35;;;;;;;12.26;34.40;97293.09;5003349;23;20054;-64
2022/03/09 09:47:31;;;;;;;34.85;18.35;;;;;;;12.34;33.83;97289.34;4975258;28;20041;-68
2022/03/09 09:49:57;;;;;;;34.33;18.23;;;;;;;11.60;35.08;97289.41;4989580;28;20445;-68
2022/03/09 09:52:27;;;;;;;34.05;19.13;;;;;;;12.77;33.65;97297.59;4974608;28;20137;-69
2022/03/09 09:54:56;;;;;;;33.63;18.90;;;;;;;12.34;33.65;97291.31;4980942;28;20062;-69
2022/03/09 09:57:23;;;;;;;32.33;17.80;;;;;;;13.13;33.09;97290.72;4987304;28;20231;-70
2022/03/09 09:59:51;;;;;;;32.05;18.17;;;;;;;12.08;34.13;97290.00;4998568;28;20046;-69
2022/03/09 10:02:17;;;;;;;32.92;18.13;;;;;;;12.41;36.45;97284.00;4983879;28;20050;-66
2022/03/09 10:04:43;;;;;;;27.70;16.88;;;;;;;12.58;35.96;97284.69;4983567;28;20629;-69
2022/03/09 10:07:08;;;;;;;29.90;15.98;;;;;;;13.68;34.73;97279.34;4976520;28;20053;-68
2022/03/09 10:09:41;;;;;;;26.02;14.75;;;;;;;14.57;33.60;97278.81;4987768;28;20046;-69
2022/03/09 10:12:08;;;;;;;26.05;14.95;;;;;;;13.00;36.57;97275.59;4978720;28;20042;-68
2022/03/09 10:14:50;;;;;;;26.73;15.10;;;;;;;12.38;37.40;97278.44;4987564;28;20133;-68
2022/03/09 10:17:28;;;;;;;26.50;14.77;;;;;;;11.97;38.62;97273.31;4975959;28;20455;-68
2022/03/09 10:19:58;;;;;;;30.42;15.05;;;;;;;12.24;38.34;97271.53;4987434;28;20049;-69
2022/03/09 10:22:32;;;;;;;26.83;14.52;;;;;;;12.67;37.49;97266.00;4975875;28;20217;-67
2022/03/09 10:25:16;;;;;;;27.90;14.68;;;;;;;12.80;37.79;97272.09;4980007;28;20039;-70
2022/03/09 10:27:50;;;;;;;27.05;15.23;;;;;;;12.86;38.64;97269.84;4983058;28;20039;-68
2022/03/09 10:30:21;;;;;;;27.65;15.82;;;;;;;12.25;38.94;97266.81;4975644;28;20133;-67
2022/03/09 10:32:54;;;;;;;28.98;15.10;;;;;;;11.99;39.85;97268.28;4992194;28;20061;-66
2022/03/09 10:35:29;;;;;;;24.75;14.23;;;;;;;11.64;40.35;97262.84;4986969;28;20057;-67
2022/03/09 10:37:54;;;;;;;33.03;17.00;;;;;;;11.00;41.92;97264.91;4981312;28;20049;-67
2022/03/09 10:40:21;;;;;;;31.67;17.00;;;;;;;11.05;42.40;97264.66;4978803;28;20042;-67
2022/03/09 10:42:48;;;;;;;30.98;17.30;;;;;;;10.49;42.35;97258.22;4985501;28;20399;-69
2022/03/09 10:45:17;;;;;;;27.88;15.85;;;;;;;10.74;43.42;97258.06;4975352;28;20046;-68
2022/03/09 10:47:48;;;;;;;33.00;17.08;;;;;;;10.25;44.28;97256.41;4977225;28;20483;-69
2022/03/09 10:50:22;;;;;;;30.88;16.42;;;;;;;11.02;43.14;97249.72;4983008;28;20414;-68
2022/03/09 10:52:56;;;;;;;30.50;16.48;;;;;;;10.82;42.91;97245.31;4981996;28;20045;-69
2022/03/09 10:55:32;;;;;;;31.08;16.40;;;;;;;9.59;45.85;97249.50;4975700;28;20237;-69
2022/03/09 10:58:15;;;;;;;29.40;16.40;;;;;;;10.55;43.11;97247.00;4978983;28;20042;-68
2022/03/09 11:00:42;;;;;;;31.60;16.80;;;;;;;10.23;43.94;97249.69;4978599;28;20157;-71
2022/03/09 11:03:15;;;;;;;35.25;17.50;;;;;;;10.62;43.19;97253.44;4983307;28;20047;-69
2022/03/09 11:05:57;;;;;;;28.67;16.73;;;;;;;11.16;42.23;97248.44;4999004;28;20110;-70
2022/03/09 11:08:31;;;;;;;29.95;16.70;;;;;;;10.77;42.88;97249.13;4995317;28;20161;-70
2022/03/09 11:11:00;;;;;;;37.45;19.17;;;;;;;11.46;41.50;97257.75;4991347;28;20584;-69
2022/03/09 11:13:32;;;;;;;37.27;17.40;;;;;;;11.37;41.42;97251.69;4990573;28;20049;-68
2022/03/09 11:15:58;;;;;;;32.35;17.75;;;;;;;11.24;41.23;97242.78;5016032;28;20042;-70